createdAt,value
2023-04-02T07:56:09.700Z,7.80
2023-04-02T07:58:37.389Z,7.75
2023-04-02T08:01:08.313Z,8.32
2023-04-02T08:03:38.155Z,7.38
2023-04-02T08:06:05.917Z,7.90
2023-04-02T08:08:36.791Z,8.52
2023-04-02T08:11:07.247Z,8.13
2023-04-02T08:48:18.564Z,8.77
2023-04-02T08:50:49.047Z,8.15
2023-04-02T08:53:16.789Z,8.35
2023-04-02T08:55:46.712Z,7.97
2023-04-02T08:58:14.264Z,8.07
2023-04-02T09:00:42.051Z,7.93
2023-04-02T09:03:11.987Z,7.78
2023-04-02T09:05:52.204Z,8.48
2023-04-02T09:08:22.163Z,7.95
2023-04-02T09:10:49.763Z,8.38
2023-04-02T09:13:19.388Z,8.52
2023-04-02T09:15:49.265Z,8.07
2023-04-02T09:18:19.484Z,8.25
2023-04-02T09:20:47.074Z,8.65
2023-04-02T09:23:17.216Z,8.05
2023-04-02T09:25:54.274Z,8.82
2023-04-02T09:28:28.940Z,8.48
2023-04-02T09:31:04.319Z,9.10
2023-04-02T09:33:40.091Z,8.65
2023-04-02T09:36:07.861Z,8.43
2023-04-02T09:38:35.455Z,8.60
2023-04-02T09:41:05.493Z,8.10
2023-04-02T09:43:33.249Z,7.80
2023-04-02T09:46:00.796Z,8.63
2023-04-02T09:48:30.702Z,8.23
2023-04-02T09:50:58.540Z,9.10
2023-04-02T09:53:26.457Z,8.90
2023-04-02T09:56:00.905Z,8.65
2023-04-02T09:58:28.613Z,8.30
2023-04-02T10:00:56.273Z,8.40
2023-04-02T10:03:24.219Z,8.85
2023-04-02T10:05:52.021Z,8.63
2023-04-02T10:08:21.088Z,8.48
2023-04-02T10:10:51.140Z,8.55
2023-04-02T10:13:18.861Z,8.20
2023-04-02T10:15:46.565Z,7.75
2023-04-02T10:18:16.329Z,8.43
2023-04-02T10:20:51.357Z,8.30
2023-04-02T10:23:21.743Z,7.93
2023-04-02T10:25:49.498Z,8.77
2023-04-02T10:28:17.141Z,8.20
2023-04-02T10:30:45.693Z,8.52
2023-04-02T10:33:13.330Z,9.45
2023-04-02T10:35:48.122Z,9.10
2023-04-02T10:38:18.161Z,8.80
2023-04-02T10:40:51.867Z,8.52
2023-04-02T10:43:22.717Z,9.60
2023-04-02T10:45:50.337Z,9.73
2023-04-02T10:48:17.964Z,9.18
2023-04-02T10:50:45.941Z,9.32
2023-04-02T10:53:13.501Z,8.93
2023-04-02T10:55:41.109Z,9.13
2023-04-02T10:58:15.300Z,8.48
2023-04-02T11:00:45.753Z,8.38
2023-04-02T11:03:14.962Z,9.13
2023-04-02T11:05:42.935Z,9.13
2023-04-02T11:19:49.174Z,9.77
2023-04-02T11:22:25.389Z,10.07
2023-04-02T11:24:57.480Z,10.73
2023-04-02T11:27:25.074Z,11.32
2023-04-02T11:29:54.627Z,14.43
2023-04-02T11:32:25.256Z,19.92
2023-04-02T11:35:04.985Z,18.48
2023-04-02T11:37:35.019Z,15.00
2023-04-02T11:40:02.631Z,15.02
2023-04-02T11:42:44.041Z,38.50
2023-04-02T11:45:14.769Z,29.80
2023-04-02T11:47:42.700Z,19.17
2023-04-02T11:50:13.563Z,15.73
2023-04-02T11:52:41.380Z,15.07
2023-04-02T11:55:09.258Z,13.40
2023-04-02T11:57:36.998Z,12.68
2023-04-02T12:00:04.663Z,16.10
2023-04-02T12:02:35.351Z,12.85
2023-04-02T12:05:06.854Z,11.13
2023-04-02T12:07:37.153Z,10.90
2023-04-02T12:10:04.772Z,10.77
2023-04-02T12:12:35.292Z,10.52
2023-04-02T12:15:05.815Z,10.20
2023-04-02T12:17:33.448Z,9.73
2023-04-02T12:20:01.229Z,9.25
2023-04-02T12:22:32.069Z,9.05
2023-04-02T12:24:59.728Z,9.93
2023-04-02T12:27:27.338Z,8.27
2023-04-02T12:29:57.428Z,8.63
2023-04-02T12:32:25.637Z,8.38
2023-04-02T12:34:55.343Z,8.35
2023-04-02T12:37:25.254Z,8.40
2023-04-02T12:39:52.866Z,8.95
2023-04-02T12:42:20.520Z,8.95
2023-04-02T12:44:48.824Z,9.02
2023-04-02T12:47:21.350Z,8.43
2023-04-02T12:49:49.062Z,9.20
2023-04-02T12:52:17.022Z,9.18
2023-04-02T12:54:44.610Z,9.80
2023-04-02T12:57:12.473Z,8.55
2023-04-02T12:59:40.460Z,8.43
2023-04-02T13:02:15.348Z,9.45
2023-04-02T13:04:59.326Z,8.48
2023-04-02T13:07:29.002Z,9.00
2023-04-02T13:09:56.642Z,9.10
2023-04-02T13:12:27.958Z,9.70
2023-04-02T13:14:55.485Z,9.63
2023-04-02T13:17:23.953Z,9.43
2023-04-02T13:19:54.577Z,9.65
2023-04-02T13:22:30.441Z,9.55
2023-04-02T13:25:00.687Z,10.10
2023-04-02T13:27:28.465Z,9.95
2023-04-02T13:29:56.038Z,9.10
2023-04-02T13:35:10.917Z,9.70
2023-04-02T13:37:57.094Z,9.05
2023-04-02T13:40:29.156Z,9.27
2023-04-02T13:42:57.020Z,9.45
2023-04-02T13:45:26.765Z,8.93
2023-04-02T13:48:14.877Z,9.27
2023-04-02T13:50:42.712Z,9.90
2023-04-02T13:53:16.544Z,9.93
2023-04-02T13:55:44.302Z,10.38
2023-04-02T13:58:14.708Z,11.30
2023-04-02T14:00:51.306Z,10.73
2023-04-02T14:03:21.896Z,10.85
2023-04-02T14:05:49.551Z,10.13
2023-04-02T14:08:31.484Z,9.25
2023-04-02T14:10:59.244Z,9.05
2023-04-02T14:13:29.086Z,9.65
2023-04-02T14:15:56.910Z,9.32
2023-04-02T14:18:34.745Z,9.50
2023-04-02T14:21:03.099Z,9.77
2023-04-02T14:23:34.950Z,8.80
2023-04-02T14:26:02.506Z,9.05
2023-04-02T14:28:33.174Z,9.32
2023-04-02T14:31:01.787Z,8.93
2023-04-02T14:36:16.561Z,9.68
2023-04-02T14:38:50.217Z,9.38
2023-04-02T14:43:48.205Z,9.65
2023-04-02T14:46:15.820Z,9.55
2023-04-02T14:49:05.186Z,9.95
2023-04-02T14:51:32.719Z,9.25
2023-04-02T14:54:13.914Z,10.43
2023-04-02T14:56:41.532Z,9.45
2023-04-02T14:59:09.167Z,10.07
2023-04-02T15:01:39.693Z,10.23
2023-04-02T15:04:16.469Z,9.82
2023-04-02T15:06:46.529Z,10.07
2023-04-02T15:09:23.736Z,9.70
2023-04-02T15:11:55.073Z,9.60
2023-04-02T15:14:22.879Z,9.10
2023-04-02T15:16:50.494Z,9.90
2023-04-02T15:19:24.780Z,10.10
2023-04-02T15:24:46.744Z,10.20
2023-04-02T15:27:24.552Z,9.75
2023-04-02T15:29:55.719Z,10.70
2023-04-02T15:32:23.347Z,10.23
2023-04-02T15:35:09.907Z,9.93
2023-04-02T15:37:37.684Z,10.45
2023-04-02T15:40:05.266Z,10.18
2023-04-02T15:42:33.289Z,10.15
2023-04-02T15:45:01.125Z,10.38
2023-04-02T15:47:28.817Z,10.70
2023-04-02T15:50:04.373Z,10.80
2023-04-02T15:52:34.930Z,11.70
2023-04-02T15:55:03.642Z,11.38
2023-04-02T15:57:36.564Z,11.23
2023-04-02T16:00:04.147Z,11.65
2023-04-02T16:02:33.403Z,11.45
2023-04-02T16:05:19.224Z,11.48
2023-04-02T16:07:47.000Z,11.23
2023-04-02T16:10:40.158Z,11.18
2023-04-02T16:13:10.022Z,10.88
2023-04-02T16:15:40.699Z,11.50
2023-04-02T16:18:08.315Z,11.48
2023-04-02T16:20:36.189Z,11.85
2023-04-02T16:23:06.562Z,12.27
2023-04-02T16:25:48.541Z,12.07
2023-04-02T16:28:19.174Z,11.40
2023-04-02T16:30:46.745Z,11.85
2023-04-02T16:33:14.317Z,12.02
2023-04-02T16:35:44.139Z,11.70
2023-04-02T16:38:11.704Z,12.20
2023-04-02T16:43:26.789Z,11.57
2023-04-02T16:45:54.625Z,12.13
2023-04-02T16:48:22.192Z,12.40
2023-04-02T16:51:04.362Z,12.38
2023-04-02T16:53:41.369Z,12.20
2023-04-02T16:56:23.964Z,12.10
2023-04-02T16:58:51.621Z,13.18
2023-04-02T17:01:21.569Z,12.85
2023-04-02T17:03:49.342Z,13.13
2023-04-02T17:06:24.243Z,12.45
2023-04-02T17:08:52.072Z,13.80
2023-04-02T17:11:20.208Z,13.43
2023-04-02T17:13:51.462Z,12.40
2023-04-02T17:16:21.484Z,13.52
2023-04-02T17:18:49.187Z,13.25
2023-04-02T17:21:29.571Z,13.50
2023-04-02T17:24:06.418Z,13.48
2023-04-02T17:26:41.361Z,13.50
2023-04-02T17:29:09.402Z,13.27
2023-04-02T17:34:27.229Z,13.70
2023-04-02T17:36:57.092Z,14.45
2023-04-02T17:39:24.728Z,13.30
2023-04-02T17:44:39.123Z,13.60
2023-04-02T17:47:06.766Z,14.02
2023-04-02T17:49:34.378Z,14.45
2023-04-02T17:54:48.333Z,13.35
2023-04-02T17:57:29.495Z,14.45
2023-04-02T17:59:59.083Z,13.90
2023-04-02T18:02:26.738Z,13.98
2023-04-02T18:04:56.045Z,13.25
2023-04-02T18:10:05.620Z,13.30
2023-04-02T18:12:51.112Z,13.43
2023-04-02T18:15:19.470Z,12.75
2023-04-02T18:17:47.679Z,14.32
2023-04-02T18:20:18.139Z,13.23
2023-04-02T18:25:32.785Z,13.35
2023-04-02T18:28:00.367Z,13.25
2023-04-02T18:30:28.365Z,12.73
2023-04-02T18:32:58.377Z,12.88
2023-04-02T18:35:26.826Z,13.48
2023-04-02T18:43:25.162Z,13.35
2023-04-02T18:45:52.913Z,12.00
2023-04-02T18:48:23.238Z,13.45
2023-04-02T18:50:52.677Z,12.73
2023-04-02T18:53:20.427Z,12.38
2023-04-02T18:55:50.031Z,13.00
2023-04-02T18:58:19.965Z,13.20
2023-04-02T19:00:47.669Z,12.18
2023-04-02T19:03:17.145Z,13.18
2023-04-02T19:05:47.684Z,12.52
2023-04-02T19:08:22.698Z,12.70
2023-04-02T19:10:51.633Z,13.25
2023-04-02T19:16:04.960Z,12.98
2023-04-02T19:18:34.065Z,12.60
2023-04-02T19:21:01.567Z,12.85
2023-04-02T19:23:31.769Z,13.40
2023-04-02T19:25:59.511Z,12.57
2023-04-02T19:28:27.034Z,12.55
2023-04-02T19:30:55.674Z,13.10
2023-04-02T19:33:26.709Z,12.43
2023-04-02T19:35:54.281Z,12.88
2023-04-02T19:38:24.078Z,13.27
2023-04-02T19:40:53.759Z,13.65
2023-04-02T19:43:21.278Z,13.73
2023-04-02T19:45:51.079Z,13.52
2023-04-02T19:48:20.796Z,13.48
2023-04-02T19:50:48.439Z,13.60
2023-04-02T19:53:18.177Z,14.00
2023-04-02T19:55:48.599Z,13.68
2023-04-02T19:58:19.880Z,13.90
2023-04-02T20:00:49.949Z,14.02
2023-04-02T20:03:18.046Z,13.65
2023-04-02T20:05:47.828Z,12.88
2023-04-02T20:08:17.710Z,13.07
2023-04-02T20:10:45.223Z,13.60
2023-04-02T20:13:12.737Z,13.82
2023-04-02T20:15:42.812Z,13.85
2023-04-02T20:18:10.914Z,13.65
2023-04-02T20:20:58.661Z,14.02
2023-04-02T20:23:27.467Z,14.88
2023-04-02T20:25:59.614Z,14.55
2023-04-02T20:28:32.422Z,13.80
2023-04-02T20:31:03.312Z,14.13
2023-04-02T20:33:32.361Z,14.20
2023-04-02T20:36:02.625Z,14.70
2023-04-02T20:38:31.493Z,14.38
2023-04-02T20:41:06.434Z,14.70
2023-04-02T20:43:36.221Z,14.70
2023-04-02T20:46:05.019Z,15.07
2023-04-02T20:48:38.433Z,14.88
2023-04-02T20:51:07.167Z,14.55
2023-04-02T20:53:42.233Z,14.90
2023-04-02T20:56:10.743Z,16.30
2023-04-02T20:58:41.499Z,17.70
2023-04-02T21:01:17.548Z,15.60
2023-04-02T21:03:45.602Z,15.90
2023-04-02T21:06:14.893Z,16.52
2023-04-02T21:08:44.791Z,16.48
2023-04-02T21:11:30.829Z,16.92
2023-04-02T21:14:36.990Z,15.80
2023-04-02T21:17:30.045Z,15.98
2023-04-02T21:20:23.147Z,15.73
2023-04-02T21:23:11.150Z,15.35
2023-04-02T21:26:02.055Z,14.80
2023-04-02T21:28:52.785Z,15.77
2023-04-02T21:31:42.852Z,18.48
2023-04-02T21:34:30.737Z,19.60
2023-04-02T21:37:20.836Z,18.60
2023-04-02T21:40:08.759Z,16.58
2023-04-02T21:43:03.605Z,16.05
2023-04-02T21:45:54.357Z,15.38
2023-04-02T21:48:52.973Z,166.60
2023-04-02T21:51:40.920Z,133.18
2023-04-02T21:54:32.230Z,70.10
2023-04-02T21:57:24.943Z,48.72
2023-04-02T22:03:21.366Z,27.70
2023-04-02T22:06:24.367Z,20.55
2023-04-02T22:09:12.169Z,19.10
2023-04-02T22:12:05.473Z,19.35
2023-04-02T22:14:53.250Z,17.65
2023-04-02T22:17:47.196Z,17.83
2023-04-02T22:20:35.348Z,18.88
2023-04-02T22:23:25.545Z,17.77
2023-04-02T22:26:13.372Z,16.95
2023-04-02T22:29:07.312Z,16.52
2023-04-02T22:31:55.468Z,18.20
2023-04-02T22:34:43.459Z,17.08
2023-04-02T22:37:11.260Z,19.45
2023-04-02T22:39:41.660Z,17.63
2023-04-02T22:42:21.567Z,18.75
2023-04-02T22:44:50.402Z,18.48
2023-04-02T22:47:34.311Z,18.85
2023-04-02T22:50:09.868Z,19.17
2023-04-02T22:52:59.929Z,19.70
2023-04-02T22:55:42.480Z,21.67
2023-04-02T22:58:16.731Z,21.35
2023-04-02T23:03:46.418Z,23.10
2023-04-02T23:06:21.376Z,23.92
2023-04-02T23:08:51.411Z,25.42
2023-04-02T23:11:22.758Z,24.45
2023-04-02T23:13:54.246Z,22.98
2023-04-02T23:16:26.393Z,24.73
2023-04-02T23:18:58.218Z,29.40
2023-04-02T23:21:33.100Z,45.97
2023-04-02T23:24:00.800Z,40.17
2023-04-02T23:26:29.166Z,28.67
2023-04-02T23:28:57.861Z,24.63
2023-04-02T23:31:27.487Z,25.85
2023-04-02T23:33:58.220Z,23.00
2023-04-02T23:36:35.055Z,20.27
2023-04-02T23:39:06.826Z,18.77
2023-04-02T23:41:34.992Z,18.90
2023-04-02T23:44:03.955Z,18.98
2023-04-02T23:46:34.349Z,17.73
2023-04-02T23:49:01.906Z,18.35
2023-04-02T23:51:29.503Z,19.42
2023-04-02T23:53:59.290Z,18.52
2023-04-02T23:56:26.872Z,18.27
2023-04-02T23:58:54.530Z,19.08
